MV CSAV Venezuela — A8TE8 — position and weather

sailwx.info

Track history (hours):
 
Tides and Currents Weather Stations Pressure Air Temp Water Temp Dewpoint Dewpoint Depression Visibility Wind Speed Wind Dir Waves Ship Positions

MV CSAV Venezuela

Last reported at 2018-Jan-28 06:04 UTC. Time now 2018-Feb-24 12:11 UTC.
Position S 33°04' W 071°55'.
Warning: this ship's position is 27 days out of date.

Length 177 m; draft 7.8 m.

Type: Ship (hazmat cat A). MMSI: 636091823.

Date/timePositionNaut miles runAvg speedWind from/ knotsBaromVisibWave heightAir tempDewpointWater temp
2018-Jan-28 06:04S 33°04' W 071°55'112.8
2018-Jan-28 06:00S 33°03' W 071°55'712.8
2018-Jan-28 05:29S 32°57' W 071°58'612.6
2018-Jan-28 05:00S 32°51' W 071°60'612.4
2018-Jan-28 04:30S 32°45' W 072°02'  
2018-Jan-20 01:19N 09°11' W 079°52'412.4
2018-Jan-20 01:00N 09°13' W 079°55'3 7.0
2018-Jan-20 00:30N 09°16' W 079°55'0 0.5
2018-Jan-20 00:00N 09°16' W 079°55'0 0.5
2018-Jan-19 23:30N 09°17' W 079°55'1 1.6
2018-Jan-19 23:00N 09°17' W 079°55'3 5.2
2018-Jan-19 22:30N 09°20' W 079°55'2 3.2
2018-Jan-19 21:59N 09°22' W 079°56'0 0.0
2018-Jan-19 21:29N 09°22' W 079°56'0 0.1
2018-Jan-19 20:59N 09°22' W 079°56'0 0.0
2018-Jan-19 20:29N 09°22' W 079°56'0 0.0
2018-Jan-19 19:59N 09°22' W 079°56'0 0.0
2018-Jan-19 19:29N 09°22' W 079°56'0 0.1
2018-Jan-19 18:59N 09°22' W 079°56'0 0.0
2018-Jan-19 18:29N 09°22' W 079°56'0 0.0
2018-Jan-19 17:59N 09°22' W 079°56'0 0.0
2018-Jan-19 17:29N 09°22' W 079°56'0 0.2
2018-Jan-19 16:59N 09°22' W 079°56'0 0.4
2018-Jan-19 16:29N 09°22' W 079°56'3 6.3
2018-Jan-19 16:00N 09°25' W 079°55'3 7.0
2018-Jan-19 15:30N 09°28' W 079°56'2 2.9
2018-Jan-19 14:55N 09°29' W 079°57'0 0.6
2018-Jan-19 14:30N 09°29' W 079°57'0 0.8
2018-Jan-19 14:00N 09°29' W 079°58'0 0.4
2018-Jan-19 13:30N 09°29' W 079°58'1 2.5
2018-Jan-19 13:00N 09°28' W 079°59'2 3.5
2018-Jan-19 12:30N 09°26' W 079°59'4 7.8
2018-Jan-19 12:00N 09°26' W 079°55'4 7.7
2018-Jan-19 11:30N 09°22' W 079°54'1 1.1
2018-Jan-19 11:00N 09°22' W 079°53'0 0.0
2018-Jan-19 10:30N 09°22' W 079°53'0 0.0
2018-Jan-19 10:00N 09°22' W 079°53'0 0.0
2018-Jan-19 09:30N 09°22' W 079°53'0 0.0
2018-Jan-19 09:00N 09°22' W 079°53'0 0.0
2018-Jan-19 08:30N 09°22' W 079°53'0 0.0
2018-Jan-19 08:00N 09°22' W 079°53'0 0.0
2018-Jan-19 07:30N 09°22' W 079°53'0 0.0
2018-Jan-19 07:00N 09°22' W 079°53'0 0.0
2018-Jan-19 06:30N 09°22' W 079°53'0 0.0
2018-Jan-19 06:00N 09°22' W 079°53'0 0.0
2018-Jan-19 05:30N 09°22' W 079°53'0 0.0
2018-Jan-19 05:00N 09°22' W 079°53'0 0.0
2018-Jan-19 03:09N 09°22' W 079°53'0 0.0
2018-Jan-19 03:00N 09°22' W 079°53'0 0.0
2018-Jan-19 02:30N 09°22' W 079°53'0 0.0
2018-Jan-19 02:00N 09°22' W 079°53'0 0.0
2018-Jan-19 01:30N 09°22' W 079°53'0 0.8
2018-Jan-19 01:00N 09°22' W 079°54'4 7.9
2018-Jan-19 00:30N 09°26' W 079°54'3 6.9
2018-Jan-19 00:00N 09°30' W 079°53'815.9
2018-Jan-18 23:30N 09°37' W 079°51'1017.8
2018-Jan-18 22:57N 09°46' W 079°47'  
Track history (hours):
 
Tides and Currents Weather Stations Pressure Air Temp Water Temp Dewpoint Dewpoint Depression Visibility Wind Speed Wind Dir Waves Ship Positions

MV CSAV Venezuela

Last reported at 2018-Jan-28 06:04 UTC. Time now 2018-Feb-24 12:11 UTC.
Position S 33°04' W 071°55'.
Warning: this ship's position is 27 days out of date.

Length 177 m; draft 7.8 m.

Type: Ship (hazmat cat A). MMSI: 636091823.

Date/timePositionNaut miles runAvg speedWind from/ knotsBaromVisibWave heightAir tempDewpointWater temp
2018-Jan-28 06:04S 33°04' W 071°55'112.8
2018-Jan-28 06:00S 33°03' W 071°55'712.8
2018-Jan-28 05:29S 32°57' W 071°58'612.6
2018-Jan-28 05:00S 32°51' W 071°60'612.4
2018-Jan-28 04:30S 32°45' W 072°02'  
2018-Jan-20 01:19N 09°11' W 079°52'412.4
2018-Jan-20 01:00N 09°13' W 079°55'3 7.0
2018-Jan-20 00:30N 09°16' W 079°55'0 0.5
2018-Jan-20 00:00N 09°16' W 079°55'0 0.5
2018-Jan-19 23:30N 09°17' W 079°55'1 1.6
2018-Jan-19 23:00N 09°17' W 079°55'3 5.2
2018-Jan-19 22:30N 09°20' W 079°55'2 3.2
2018-Jan-19 21:59N 09°22' W 079°56'0 0.0
2018-Jan-19 21:29N 09°22' W 079°56'0 0.1
2018-Jan-19 20:59N 09°22' W 079°56'0 0.0
2018-Jan-19 20:29N 09°22' W 079°56'0 0.0
2018-Jan-19 19:59N 09°22' W 079°56'0 0.0
2018-Jan-19 19:29N 09°22' W 079°56'0 0.1
2018-Jan-19 18:59N 09°22' W 079°56'0 0.0
2018-Jan-19 18:29N 09°22' W 079°56'0 0.0
2018-Jan-19 17:59N 09°22' W 079°56'0 0.0
2018-Jan-19 17:29N 09°22' W 079°56'0 0.2
2018-Jan-19 16:59N 09°22' W 079°56'0 0.4
2018-Jan-19 16:29N 09°22' W 079°56'3 6.3
2018-Jan-19 16:00N 09°25' W 079°55'3 7.0
2018-Jan-19 15:30N 09°28' W 079°56'2 2.9
2018-Jan-19 14:55N 09°29' W 079°57'0 0.6
2018-Jan-19 14:30N 09°29' W 079°57'0 0.8
2018-Jan-19 14:00N 09°29' W 079°58'0 0.4
2018-Jan-19 13:30N 09°29' W 079°58'1 2.5
2018-Jan-19 13:00N 09°28' W 079°59'2 3.5
2018-Jan-19 12:30N 09°26' W 079°59'4 7.8
2018-Jan-19 12:00N 09°26' W 079°55'4 7.7
2018-Jan-19 11:30N 09°22' W 079°54'1 1.1
2018-Jan-19 11:00N 09°22' W 079°53'0 0.0
2018-Jan-19 10:30N 09°22' W 079°53'0 0.0
2018-Jan-19 10:00N 09°22' W 079°53'0 0.0
2018-Jan-19 09:30N 09°22' W 079°53'0 0.0
2018-Jan-19 09:00N 09°22' W 079°53'0 0.0
2018-Jan-19 08:30N 09°22' W 079°53'0 0.0
2018-Jan-19 08:00N 09°22' W 079°53'0 0.0
2018-Jan-19 07:30N 09°22' W 079°53'0 0.0
2018-Jan-19 07:00N 09°22' W 079°53'0 0.0
2018-Jan-19 06:30N 09°22' W 079°53'0 0.0
2018-Jan-19 06:00N 09°22' W 079°53'0 0.0
2018-Jan-19 05:30N 09°22' W 079°53'0 0.0
2018-Jan-19 05:00N 09°22' W 079°53'0 0.0
2018-Jan-19 03:09N 09°22' W 079°53'0 0.0
2018-Jan-19 03:00N 09°22' W 079°53'0 0.0
2018-Jan-19 02:30N 09°22' W 079°53'0 0.0
2018-Jan-19 02:00N 09°22' W 079°53'0 0.0
2018-Jan-19 01:30N 09°22' W 079°53'0 0.8
2018-Jan-19 01:00N 09°22' W 079°54'4 7.9
2018-Jan-19 00:30N 09°26' W 079°54'3 6.9
2018-Jan-19 00:00N 09°30' W 079°53'815.9
2018-Jan-18 23:30N 09°37' W 079°51'1017.8
2018-Jan-18 22:57N 09°46' W 079°47'  

Dump ship's entire track history